FQMA/MPM METAR and TAF weather

Enter ICAO airport designator
Station Type Date Time Source
FQMA METAR 2020/08/15 11:00 UTC NOAA

FQMA 151100Z 35014KT CAVOK 31/10 Q1008 NOSIG


Station Type Date Time Source
FQMA Decoded METAR 2020/08/15 11:00 UTC NOAA

Maputo / Mavalane, Mozambique (FQMA) 25-55S 032-34E 44M
Aug 15, 2020 - 07:00 AM EDT / 2020.08.15 1100 UTC
Wind: from the N (350 degrees) at 16 MPH (14 KT):0
Visibility: greater than 7 mile(s):0
Temperature: 87 F (31 C)
Dew Point: 50 F (10 C)
Relative Humidity: 27%
Pressure (altimeter): 29.77 in. Hg (1008 hPa)
ob: FQMA 151100Z 35014KT CAVOK 31/10 Q1008 NOSIG
cycle: 11

Station Type Date Time Source
FQMA TAF 2020/08/15 12:52 UTC NOAA

TAF FQMA 151000Z 1512/1618 35015KT CAVOK TX33/1513Z TN15/1603Z
BECMG 1600/1602 17012G22KT 9999 FEW020
BECMG 1606/1608 15012KT
BECMG 1616/1618 15010G20KT

Example: see airport list